sensor_id;sensor_type;location;lat;lon;timestamp;temperature;humidity
14614;DHT22;7393;51.446;6.800;2023-12-28T00:01:27;9.50;1.00
14614;DHT22;7393;51.446;6.800;2023-12-28T00:03:55;9.50;1.00
14614;DHT22;7393;51.446;6.800;2023-12-28T00:06:21;9.60;99.90
14614;DHT22;7393;51.446;6.800;2023-12-28T00:08:48;9.60;99.90
14614;DHT22;7393;51.446;6.800;2023-12-28T00:11:15;9.60;99.90
14614;DHT22;7393;51.446;6.800;2023-12-28T00:13:42;9.70;1.00
14614;DHT22;7393;51.446;6.800;2023-12-28T00:16:08;9.80;1.00
14614;DHT22;7393;51.446;6.800;2023-12-28T00:18:35;9.80;99.90
14614;DHT22;7393;51.446;6.800;2023-12-28T00:21:04;9.80;99.90
14614;DHT22;7393;51.446;6.800;2023-12-28T00:23:30;9.80;99.90
14614;DHT22;7393;51.446;6.800;2023-12-28T00:25:57;9.80;99.90
14614;DHT22;7393;51.446;6.800;2023-12-28T00:28:24;9.80;99.90
14614;DHT22;7393;51.446;6.800;2023-12-28T00:30:51;9.80;1.00
14614;DHT22;7393;51.446;6.800;2023-12-28T00:33:17;9.80;99.90
14614;DHT22;7393;51.446;6.800;2023-12-28T00:35:44;9.90;1.00
14614;DHT22;7393;51.446;6.800;2023-12-28T00:38:12;10.00;15.40
14614;DHT22;7393;51.446;6.800;2023-12-28T00:40:39;10.00;1.00
14614;DHT22;7393;51.446;6.800;2023-12-28T00:43:06;10.00;1.00
14614;DHT22;7393;51.446;6.800;2023-12-28T00:45:33;9.90;1.00
14614;DHT22;7393;51.446;6.800;2023-12-28T00:48:00;9.90;68.00
14614;DHT22;7393;51.446;6.800;2023-12-28T00:50:27;9.90;1.00
14614;DHT22;7393;51.446;6.800;2023-12-28T00:52:57;9.90;1.00
14614;DHT22;7393;51.446;6.800;2023-12-28T00:55:25;10.00;1.00
14614;DHT22;7393;51.446;6.800;2023-12-28T00:57:53;10.00;99.90
14614;DHT22;7393;51.446;6.800;2023-12-28T01:00:20;10.00;1.00
14614;DHT22;7393;51.446;6.800;2023-12-28T01:02:46;10.00;99.90
14614;DHT22;7393;51.446;6.800;2023-12-28T01:05:14;10.10;99.90
14614;DHT22;7393;51.446;6.800;2023-12-28T01:07:41;10.00;1.00
14614;DHT22;7393;51.446;6.800;2023-12-28T01:10:08;10.00;1.00
14614;DHT22;7393;51.446;6.800;2023-12-28T01:12:36;10.00;99.90
14614;DHT22;7393;51.446;6.800;2023-12-28T01:15:03;10.20;1.00
14614;DHT22;7393;51.446;6.800;2023-12-28T01:17:31;10.10;99.90
14614;DHT22;7393;51.446;6.800;2023-12-28T01:19:58;10.00;99.90
14614;DHT22;7393;51.446;6.800;2023-12-28T01:22:24;10.10;99.90
14614;DHT22;7393;51.446;6.800;2023-12-28T01:24:51;10.00;1.00
14614;DHT22;7393;51.446;6.800;2023-12-28T01:27:18;10.10;1.00
14614;DHT22;7393;51.446;6.800;2023-12-28T01:29:46;10.10;1.00
14614;DHT22;7393;51.446;6.800;2023-12-28T01:32:13;10.10;1.00
14614;DHT22;7393;51.446;6.800;2023-12-28T01:34:40;10.10;1.00
14614;DHT22;7393;51.446;6.800;2023-12-28T01:37:07;10.00;1.00
14614;DHT22;7393;51.446;6.800;2023-12-28T01:39:34;10.00;99.90
14614;DHT22;7393;51.446;6.800;2023-12-28T01:42:01;10.10;99.90
14614;DHT22;7393;51.446;6.800;2023-12-28T01:44:28;10.00;99.90
14614;DHT22;7393;51.446;6.800;2023-12-28T01:46:56;10.00;99.90
14614;DHT22;7393;51.446;6.800;2023-12-28T01:49:23;10.10;99.90
14614;DHT22;7393;51.446;6.800;2023-12-28T01:51:50;10.10;99.90
14614;DHT22;7393;51.446;6.800;2023-12-28T01:54:17;10.20;99.90
14614;DHT22;7393;51.446;6.800;2023-12-28T01:56:44;10.00;1.00
14614;DHT22;7393;51.446;6.800;2023-12-28T01:59:11;10.00;1.00
14614;DHT22;7393;51.446;6.800;2023-12-28T02:01:40;10.00;1.00
14614;DHT22;7393;51.446;6.800;2023-12-28T02:04:08;10.10;1.00
14614;DHT22;7393;51.446;6.800;2023-12-28T02:06:35;10.10;1.00
14614;DHT22;7393;51.446;6.800;2023-12-28T02:09:02;10.10;1.00
14614;DHT22;7393;51.446;6.800;2023-12-28T02:11:29;10.00;1.00
14614;DHT22;7393;51.446;6.800;2023-12-28T02:13:56;10.00;1.00
14614;DHT22;7393;51.446;6.800;2023-12-28T02:16:26;10.20;99.90
14614;DHT22;7393;51.446;6.800;2023-12-28T02:18:56;10.10;99.90
14614;DHT22;7393;51.446;6.800;2023-12-28T02:21:27;10.00;1.00
14614;DHT22;7393;51.446;6.800;2023-12-28T02:23:54;10.00;1.00
14614;DHT22;7393;51.446;6.800;2023-12-28T02:26:22;10.00;99.90
14614;DHT22;7393;51.446;6.800;2023-12-28T02:28:49;10.10;99.90
14614;DHT22;7393;51.446;6.800;2023-12-28T02:31:21;10.10;99.90
14614;DHT22;7393;51.446;6.800;2023-12-28T02:33:57;10.00;99.90
14614;DHT22;7393;51.446;6.800;2023-12-28T02:36:26;10.00;1.00
14614;DHT22;7393;51.446;6.800;2023-12-28T02:38:56;10.00;99.90
14614;DHT22;7393;51.446;6.800;2023-12-28T02:41:26;10.00;1.00
14614;DHT22;7393;51.446;6.800;2023-12-28T02:43:53;10.20;99.90
14614;DHT22;7393;51.446;6.800;2023-12-28T02:46:19;10.10;1.00
14614;DHT22;7393;51.446;6.800;2023-12-28T02:48:46;10.00;1.00
14614;DHT22;7393;51.446;6.800;2023-12-28T02:51:13;10.00;1.00
14614;DHT22;7393;51.446;6.800;2023-12-28T02:53:41;10.00;26.50
14614;DHT22;7393;51.446;6.800;2023-12-28T02:56:08;10.00;99.90
14614;DHT22;7393;51.446;6.800;2023-12-28T02:58:36;9.90;1.00
14614;DHT22;7393;51.446;6.800;2023-12-28T03:01:03;10.00;42.90
14614;DHT22;7393;51.446;6.800;2023-12-28T03:03:30;10.00;1.00
14614;DHT22;7393;51.446;6.800;2023-12-28T03:05:57;9.90;1.00
14614;DHT22;7393;51.446;6.800;2023-12-28T03:08:24;10.00;1.00
14614;DHT22;7393;51.446;6.800;2023-12-28T03:10:51;10.00;12.60
14614;DHT22;7393;51.446;6.800;2023-12-28T03:13:18;10.10;1.00
14614;DHT22;7393;51.446;6.800;2023-12-28T03:15:46;10.10;1.00
14614;DHT22;7393;51.446;6.800;2023-12-28T03:18:13;10.00;99.90
14614;DHT22;7393;51.446;6.800;2023-12-28T03:20:40;10.00;1.00
14614;DHT22;7393;51.446;6.800;2023-12-28T03:23:06;10.00;99.90
14614;DHT22;7393;51.446;6.800;2023-12-28T03:25:33;10.10;1.00
14614;DHT22;7393;51.446;6.800;2023-12-28T03:28:00;10.10;1.00
14614;DHT22;7393;51.446;6.800;2023-12-28T03:30:27;10.20;1.00
14614;DHT22;7393;51.446;6.800;2023-12-28T03:32:55;10.10;99.90
14614;DHT22;7393;51.446;6.800;2023-12-28T03:35:22;10.10;99.90
14614;DHT22;7393;51.446;6.800;2023-12-28T03:37:49;10.10;1.00
14614;DHT22;7393;51.446;6.800;2023-12-28T03:40:16;10.20;99.90
14614;DHT22;7393;51.446;6.800;2023-12-28T03:42:42;10.30;1.00
14614;DHT22;7393;51.446;6.800;2023-12-28T03:45:10;10.20;99.90
14614;DHT22;7393;51.446;6.800;2023-12-28T03:47:37;10.30;1.00
14614;DHT22;7393;51.446;6.800;2023-12-28T03:50:06;10.20;1.00
14614;DHT22;7393;51.446;6.800;2023-12-28T03:52:33;10.20;1.00
14614;DHT22;7393;51.446;6.800;2023-12-28T03:55:00;10.30;1.00
14614;DHT22;7393;51.446;6.800;2023-12-28T03:57:26;10.30;1.00
14614;DHT22;7393;51.446;6.800;2023-12-28T03:59:53;10.40;1.00
14614;DHT22;7393;51.446;6.800;2023-12-28T04:02:20;10.30;34.10
14614;DHT22;7393;51.446;6.800;2023-12-28T04:04:47;10.30;1.00
14614;DHT22;7393;51.446;6.800;2023-12-28T04:07:15;10.30;1.00
14614;DHT22;7393;51.446;6.800;2023-12-28T04:09:42;10.30;1.00
14614;DHT22;7393;51.446;6.800;2023-12-28T04:12:09;10.40;1.00
14614;DHT22;7393;51.446;6.800;2023-12-28T04:14:36;10.60;1.00
14614;DHT22;7393;51.446;6.800;2023-12-28T04:17:02;10.20;1.00
14614;DHT22;7393;51.446;6.800;2023-12-28T04:19:30;10.20;1.00
14614;DHT22;7393;51.446;6.800;2023-12-28T04:21:57;10.70;1.00
14614;DHT22;7393;51.446;6.800;2023-12-28T04:24:25;9.40;99.90
14614;DHT22;7393;51.446;6.800;2023-12-28T04:26:52;10.00;1.00
14614;DHT22;7393;51.446;6.800;2023-12-28T04:29:19;10.30;99.90
14614;DHT22;7393;51.446;6.800;2023-12-28T04:31:46;10.40;99.90
14614;DHT22;7393;51.446;6.800;2023-12-28T04:34:13;10.30;99.90
14614;DHT22;7393;51.446;6.800;2023-12-28T04:36:40;10.30;1.00
14614;DHT22;7393;51.446;6.800;2023-12-28T04:39:08;10.30;1.00
14614;DHT22;7393;51.446;6.800;2023-12-28T04:41:36;10.30;1.00
14614;DHT22;7393;51.446;6.800;2023-12-28T04:44:03;10.20;1.00
14614;DHT22;7393;51.446;6.800;2023-12-28T04:46:30;10.20;1.00
14614;DHT22;7393;51.446;6.800;2023-12-28T04:48:57;10.30;1.00
14614;DHT22;7393;51.446;6.800;2023-12-28T04:51:23;10.30;99.90
14614;DHT22;7393;51.446;6.800;2023-12-28T04:53:50;10.30;1.00
14614;DHT22;7393;51.446;6.800;2023-12-28T04:56:18;10.30;99.90
14614;DHT22;7393;51.446;6.800;2023-12-28T04:58:46;10.40;1.00
14614;DHT22;7393;51.446;6.800;2023-12-28T05:01:13;10.50;1.00
14614;DHT22;7393;51.446;6.800;2023-12-28T05:03:40;10.40;1.00
14614;DHT22;7393;51.446;6.800;2023-12-28T05:06:07;10.40;1.00
14614;DHT22;7393;51.446;6.800;2023-12-28T05:08:34;10.30;1.00
14614;DHT22;7393;51.446;6.800;2023-12-28T05:11:01;10.40;1.00
14614;DHT22;7393;51.446;6.800;2023-12-28T05:13:27;10.40;1.00
14614;DHT22;7393;51.446;6.800;2023-12-28T05:15:55;10.40;1.00
14614;DHT22;7393;51.446;6.800;2023-12-28T05:18:22;10.40;1.00
14614;DHT22;7393;51.446;6.800;2023-12-28T05:20:49;10.30;1.00
14614;DHT22;7393;51.446;6.800;2023-12-28T05:23:15;10.40;1.00
14614;DHT22;7393;51.446;6.800;2023-12-28T05:25:42;10.40;1.00
14614;DHT22;7393;51.446;6.800;2023-12-28T05:28:09;10.40;99.90
14614;DHT22;7393;51.446;6.800;2023-12-28T05:30:35;10.40;99.90
14614;DHT22;7393;51.446;6.800;2023-12-28T05:33:04;10.50;99.90
14614;DHT22;7393;51.446;6.800;2023-12-28T05:35:31;10.50;57.80
14614;DHT22;7393;51.446;6.800;2023-12-28T05:37:58;10.50;99.90
14614;DHT22;7393;51.446;6.800;2023-12-28T05:40:24;10.50;1.00
14614;DHT22;7393;51.446;6.800;2023-12-28T05:42:51;10.50;1.00
14614;DHT22;7393;51.446;6.800;2023-12-28T05:45:18;10.50;1.00
14614;DHT22;7393;51.446;6.800;2023-12-28T05:47:45;10.50;1.00
14614;DHT22;7393;51.446;6.800;2023-12-28T05:50:13;10.50;1.00
14614;DHT22;7393;51.446;6.800;2023-12-28T05:52:40;10.50;1.00
14614;DHT22;7393;51.446;6.800;2023-12-28T05:55:07;10.50;1.00
14614;DHT22;7393;51.446;6.800;2023-12-28T05:57:34;10.50;1.00
14614;DHT22;7393;51.446;6.800;2023-12-28T06:00:01;10.50;1.00
14614;DHT22;7393;51.446;6.800;2023-12-28T06:02:29;10.50;1.00
14614;DHT22;7393;51.446;6.800;2023-12-28T06:04:56;10.40;1.00
14614;DHT22;7393;51.446;6.800;2023-12-28T06:07:24;10.50;1.00
14614;DHT22;7393;51.446;6.800;2023-12-28T06:09:51;10.50;1.00
14614;DHT22;7393;51.446;6.800;2023-12-28T06:12:18;10.50;1.00
14614;DHT22;7393;51.446;6.800;2023-12-28T06:14:45;10.50;1.00
14614;DHT22;7393;51.446;6.800;2023-12-28T06:17:12;10.50;99.90
14614;DHT22;7393;51.446;6.800;2023-12-28T06:19:40;10.50;99.90
14614;DHT22;7393;51.446;6.800;2023-12-28T06:22:07;10.60;99.90
14614;DHT22;7393;51.446;6.800;2023-12-28T06:24:38;10.60;1.00
14614;DHT22;7393;51.446;6.800;2023-12-28T06:27:05;10.50;99.90
14614;DHT22;7393;51.446;6.800;2023-12-28T06:29:32;10.60;8.10
14614;DHT22;7393;51.446;6.800;2023-12-28T06:31:59;10.60;99.90
14614;DHT22;7393;51.446;6.800;2023-12-28T06:34:26;10.60;99.90
14614;DHT22;7393;51.446;6.800;2023-12-28T06:36:53;10.60;99.90
14614;DHT22;7393;51.446;6.800;2023-12-28T06:39:19;10.60;10.90
14614;DHT22;7393;51.446;6.800;2023-12-28T06:41:48;10.70;1.00
14614;DHT22;7393;51.446;6.800;2023-12-28T06:44:15;10.70;28.60
14614;DHT22;7393;51.446;6.800;2023-12-28T06:46:42;10.60;51.40
14614;DHT22;7393;51.446;6.800;2023-12-28T06:49:09;10.60;1.00
14614;DHT22;7393;51.446;6.800;2023-12-28T06:51:35;10.60;1.00
14614;DHT22;7393;51.446;6.800;2023-12-28T06:54:02;10.70;1.00
14614;DHT22;7393;51.446;6.800;2023-12-28T06:56:29;10.70;1.00
14614;DHT22;7393;51.446;6.800;2023-12-28T06:58:57;10.70;1.00
14614;DHT22;7393;51.446;6.800;2023-12-28T07:01:24;10.60;1.00
14614;DHT22;7393;51.446;6.800;2023-12-28T07:03:51;10.80;1.00
14614;DHT22;7393;51.446;6.800;2023-12-28T07:06:18;10.80;1.00
14614;DHT22;7393;51.446;6.800;2023-12-28T07:08:44;10.70;1.00
14614;DHT22;7393;51.446;6.800;2023-12-28T07:11:11;10.70;1.00
14614;DHT22;7393;51.446;6.800;2023-12-28T07:13:38;10.80;1.00
14614;DHT22;7393;51.446;6.800;2023-12-28T07:16:06;10.70;99.90
14614;DHT22;7393;51.446;6.800;2023-12-28T07:18:34;10.70;99.90
14614;DHT22;7393;51.446;6.800;2023-12-28T07:21:00;10.80;99.90
14614;DHT22;7393;51.446;6.800;2023-12-28T07:23:27;10.70;99.90
14614;DHT22;7393;51.446;6.800;2023-12-28T07:25:54;10.70;99.90
14614;DHT22;7393;51.446;6.800;2023-12-28T07:28:21;10.70;99.90
14614;DHT22;7393;51.446;6.800;2023-12-28T07:30:47;10.70;99.90
14614;DHT22;7393;51.446;6.800;2023-12-28T07:33:15;10.70;99.90
14614;DHT22;7393;51.446;6.800;2023-12-28T07:35:42;10.70;99.90
14614;DHT22;7393;51.446;6.800;2023-12-28T07:38:09;10.70;99.90
14614;DHT22;7393;51.446;6.800;2023-12-28T07:40:36;10.90;99.90
14614;DHT22;7393;51.446;6.800;2023-12-28T07:43:03;10.80;99.90
14614;DHT22;7393;51.446;6.800;2023-12-28T07:45:30;10.80;99.90
14614;DHT22;7393;51.446;6.800;2023-12-28T07:47:58;11.00;99.90
14614;DHT22;7393;51.446;6.800;2023-12-28T07:50:26;10.80;99.90
14614;DHT22;7393;51.446;6.800;2023-12-28T07:52:53;10.80;99.90
14614;DHT22;7393;51.446;6.800;2023-12-28T07:55:20;10.80;99.90
14614;DHT22;7393;51.446;6.800;2023-12-28T07:57:46;10.80;99.90
14614;DHT22;7393;51.446;6.800;2023-12-28T08:00:13;10.80;99.90
14614;DHT22;7393;51.446;6.800;2023-12-28T08:02:40;10.80;99.90
14614;DHT22;7393;51.446;6.800;2023-12-28T08:05:08;10.80;99.90
14614;DHT22;7393;51.446;6.800;2023-12-28T08:07:36;10.80;99.90
14614;DHT22;7393;51.446;6.800;2023-12-28T08:10:03;10.90;99.90
14614;DHT22;7393;51.446;6.800;2023-12-28T08:12:31;10.90;99.90
14614;DHT22;7393;51.446;6.800;2023-12-28T08:14:59;10.90;99.90
14614;DHT22;7393;51.446;6.800;2023-12-28T08:17:26;10.90;99.90
14614;DHT22;7393;51.446;6.800;2023-12-28T08:19:53;10.80;99.90
14614;DHT22;7393;51.446;6.800;2023-12-28T08:22:20;10.80;99.90
14614;DHT22;7393;51.446;6.800;2023-12-28T08:24:49;10.80;99.90
14614;DHT22;7393;51.446;6.800;2023-12-28T08:27:15;10.90;99.90
14614;DHT22;7393;51.446;6.800;2023-12-28T08:29:42;10.90;99.90
14614;DHT22;7393;51.446;6.800;2023-12-28T08:32:09;10.90;7.70
14614;DHT22;7393;51.446;6.800;2023-12-28T08:34:36;10.90;32.50
14614;DHT22;7393;51.446;6.800;2023-12-28T08:37:03;10.90;66.10
14614;DHT22;7393;51.446;6.800;2023-12-28T08:39:29;10.90;64.50
14614;DHT22;7393;51.446;6.800;2023-12-28T08:41:58;10.90;91.00
14614;DHT22;7393;51.446;6.800;2023-12-28T08:44:25;10.80;99.90
14614;DHT22;7393;51.446;6.800;2023-12-28T08:46:51;10.80;93.80
14614;DHT22;7393;51.446;6.800;2023-12-28T08:49:18;11.00;21.40
14614;DHT22;7393;51.446;6.800;2023-12-28T08:51:45;10.90;52.80
14614;DHT22;7393;51.446;6.800;2023-12-28T08:54:12;11.00;7.40
14614;DHT22;7393;51.446;6.800;2023-12-28T08:56:39;10.90;19.30
14614;DHT22;7393;51.446;6.800;2023-12-28T08:59:08;10.90;1.00
14614;DHT22;7393;51.446;6.800;2023-12-28T09:01:34;10.90;37.40
14614;DHT22;7393;51.446;6.800;2023-12-28T09:04:02;10.90;50.20
14614;DHT22;7393;51.446;6.800;2023-12-28T09:06:28;10.90;1.00
14614;DHT22;7393;51.446;6.800;2023-12-28T09:08:55;10.90;17.30
14614;DHT22;7393;51.446;6.800;2023-12-28T09:11:22;10.90;12.70
14614;DHT22;7393;51.446;6.800;2023-12-28T09:13:49;10.90;48.20
14614;DHT22;7393;51.446;6.800;2023-12-28T09:16:17;10.80;31.00
14614;DHT22;7393;51.446;6.800;2023-12-28T09:18:43;10.90;9.70
14614;DHT22;7393;51.446;6.800;2023-12-28T09:21:11;10.90;38.00
14614;DHT22;7393;51.446;6.800;2023-12-28T09:23:38;11.00;1.00
14614;DHT22;7393;51.446;6.800;2023-12-28T09:26:06;11.00;11.30
14614;DHT22;7393;51.446;6.800;2023-12-28T09:28:33;11.00;25.70
14614;DHT22;7393;51.446;6.800;2023-12-28T09:31:01;10.90;61.50
14614;DHT22;7393;51.446;6.800;2023-12-28T09:33:29;10.90;18.30
14614;DHT22;7393;51.446;6.800;2023-12-28T09:35:56;10.90;27.60
14614;DHT22;7393;51.446;6.800;2023-12-28T09:38:23;11.00;1.00
14614;DHT22;7393;51.446;6.800;2023-12-28T09:40:53;11.00;1.00
14614;DHT22;7393;51.446;6.800;2023-12-28T09:43:23;11.10;1.00
14614;DHT22;7393;51.446;6.800;2023-12-28T09:45:51;11.10;1.00
14614;DHT22;7393;51.446;6.800;2023-12-28T09:48:17;11.00;1.00
14614;DHT22;7393;51.446;6.800;2023-12-28T09:50:48;11.00;1.00
14614;DHT22;7393;51.446;6.800;2023-12-28T09:53:15;11.10;1.00
14614;DHT22;7393;51.446;6.800;2023-12-28T09:55:42;11.10;1.00
14614;DHT22;7393;51.446;6.800;2023-12-28T09:58:10;11.10;1.00
14614;DHT22;7393;51.446;6.800;2023-12-28T10:00:40;11.10;1.00
14614;DHT22;7393;51.446;6.800;2023-12-28T10:03:07;11.10;1.00
14614;DHT22;7393;51.446;6.800;2023-12-28T10:05:34;11.10;1.00
14614;DHT22;7393;51.446;6.800;2023-12-28T10:08:02;11.10;1.00
14614;DHT22;7393;51.446;6.800;2023-12-28T10:10:29;11.10;1.00
14614;DHT22;7393;51.446;6.800;2023-12-28T10:12:56;11.20;1.00
14614;DHT22;7393;51.446;6.800;2023-12-28T10:15:23;11.30;1.00
14614;DHT22;7393;51.446;6.800;2023-12-28T10:17:51;11.20;1.00
14614;DHT22;7393;51.446;6.800;2023-12-28T10:20:18;11.20;1.00
14614;DHT22;7393;51.446;6.800;2023-12-28T10:22:45;11.20;1.00
14614;DHT22;7393;51.446;6.800;2023-12-28T10:25:13;11.20;1.00
14614;DHT22;7393;51.446;6.800;2023-12-28T10:27:40;11.20;1.00
14614;DHT22;7393;51.446;6.800;2023-12-28T10:30:08;11.30;1.00
14614;DHT22;7393;51.446;6.800;2023-12-28T10:32:35;11.30;1.00
14614;DHT22;7393;51.446;6.800;2023-12-28T10:35:03;11.30;99.90
14614;DHT22;7393;51.446;6.800;2023-12-28T10:37:31;11.30;99.90
14614;DHT22;7393;51.446;6.800;2023-12-28T10:39:59;11.50;99.90
14614;DHT22;7393;51.446;6.800;2023-12-28T10:42:31;11.40;99.90
14614;DHT22;7393;51.446;6.800;2023-12-28T10:45:02;11.40;99.90
14614;DHT22;7393;51.446;6.800;2023-12-28T10:47:32;11.50;99.90
14614;DHT22;7393;51.446;6.800;2023-12-28T10:50:02;11.50;99.90
14614;DHT22;7393;51.446;6.800;2023-12-28T10:52:31;11.50;99.90
14614;DHT22;7393;51.446;6.800;2023-12-28T10:55:10;11.50;99.90
14614;DHT22;7393;51.446;6.800;2023-12-28T10:57:53;11.50;99.90
14614;DHT22;7393;51.446;6.800;2023-12-28T11:00:23;11.50;99.90
14614;DHT22;7393;51.446;6.800;2023-12-28T11:02:52;11.50;99.90
14614;DHT22;7393;51.446;6.800;2023-12-28T11:05:20;11.50;99.90
14614;DHT22;7393;51.446;6.800;2023-12-28T11:07:48;11.50;99.90
14614;DHT22;7393;51.446;6.800;2023-12-28T11:10:18;11.60;99.90
14614;DHT22;7393;51.446;6.800;2023-12-28T11:12:48;11.60;99.90
14614;DHT22;7393;51.446;6.800;2023-12-28T11:15:16;11.50;99.90
14614;DHT22;7393;51.446;6.800;2023-12-28T11:17:43;11.60;99.90
14614;DHT22;7393;51.446;6.800;2023-12-28T11:20:11;11.70;99.90
14614;DHT22;7393;51.446;6.800;2023-12-28T11:22:39;11.60;99.90
14614;DHT22;7393;51.446;6.800;2023-12-28T11:25:06;11.80;99.90
14614;DHT22;7393;51.446;6.800;2023-12-28T11:27:40;11.70;99.90
14614;DHT22;7393;51.446;6.800;2023-12-28T11:30:10;11.80;99.90
14614;DHT22;7393;51.446;6.800;2023-12-28T11:32:37;11.70;99.90
14614;DHT22;7393;51.446;6.800;2023-12-28T11:35:06;11.70;99.90
14614;DHT22;7393;51.446;6.800;2023-12-28T11:37:36;11.70;99.90
14614;DHT22;7393;51.446;6.800;2023-12-28T11:40:16;11.80;99.90
14614;DHT22;7393;51.446;6.800;2023-12-28T11:42:49;11.70;99.90
14614;DHT22;7393;51.446;6.800;2023-12-28T11:45:18;11.90;99.90
14614;DHT22;7393;51.446;6.800;2023-12-28T11:47:45;11.80;99.90
14614;DHT22;7393;51.446;6.800;2023-12-28T11:50:12;11.80;99.90
14614;DHT22;7393;51.446;6.800;2023-12-28T11:52:39;11.80;99.90
14614;DHT22;7393;51.446;6.800;2023-12-28T11:55:07;11.80;99.90
14614;DHT22;7393;51.446;6.800;2023-12-28T11:57:35;11.80;99.90
14614;DHT22;7393;51.446;6.800;2023-12-28T12:00:03;11.90;99.90
14614;DHT22;7393;51.446;6.800;2023-12-28T12:02:34;11.80;99.90
14614;DHT22;7393;51.446;6.800;2023-12-28T12:05:00;11.90;99.90
14614;DHT22;7393;51.446;6.800;2023-12-28T12:07:29;11.90;99.90
14614;DHT22;7393;51.446;6.800;2023-12-28T12:09:56;11.90;99.90
14614;DHT22;7393;51.446;6.800;2023-12-28T12:12:23;11.80;99.90
14614;DHT22;7393;51.446;6.800;2023-12-28T12:14:50;11.90;99.90
14614;DHT22;7393;51.446;6.800;2023-12-28T12:17:17;12.00;99.90
14614;DHT22;7393;51.446;6.800;2023-12-28T12:19:46;12.00;99.90
14614;DHT22;7393;51.446;6.800;2023-12-28T12:22:16;12.00;99.90
14614;DHT22;7393;51.446;6.800;2023-12-28T12:24:44;12.10;99.90
14614;DHT22;7393;51.446;6.800;2023-12-28T12:27:11;12.10;99.90
14614;DHT22;7393;51.446;6.800;2023-12-28T12:29:38;12.10;99.90
14614;DHT22;7393;51.446;6.800;2023-12-28T12:32:05;12.20;99.90
14614;DHT22;7393;51.446;6.800;2023-12-28T12:34:33;12.20;99.90
14614;DHT22;7393;51.446;6.800;2023-12-28T12:37:01;12.20;22.90
14614;DHT22;7393;51.446;6.800;2023-12-28T12:39:29;12.20;31.40
14614;DHT22;7393;51.446;6.800;2023-12-28T12:41:57;12.20;10.50
14614;DHT22;7393;51.446;6.800;2023-12-28T12:44:24;12.20;99.90
14614;DHT22;7393;51.446;6.800;2023-12-28T12:46:56;12.20;99.90
14614;DHT22;7393;51.446;6.800;2023-12-28T12:49:24;12.10;99.90
14614;DHT22;7393;51.446;6.800;2023-12-28T12:51:51;12.30;96.00
14614;DHT22;7393;51.446;6.800;2023-12-28T12:54:19;12.30;92.80
14614;DHT22;7393;51.446;6.800;2023-12-28T12:56:46;12.30;49.90
14614;DHT22;7393;51.446;6.800;2023-12-28T12:59:13;12.40;53.70
14614;DHT22;7393;51.446;6.800;2023-12-28T13:01:43;12.30;63.00
14614;DHT22;7393;51.446;6.800;2023-12-28T13:04:10;12.20;82.20
14614;DHT22;7393;51.446;6.800;2023-12-28T13:06:36;12.20;68.10
14614;DHT22;7393;51.446;6.800;2023-12-28T13:09:03;12.20;99.90
14614;DHT22;7393;51.446;6.800;2023-12-28T13:11:33;12.20;99.90
14614;DHT22;7393;51.446;6.800;2023-12-28T13:14:00;12.30;99.90
14614;DHT22;7393;51.446;6.800;2023-12-28T13:16:27;12.20;99.90
14614;DHT22;7393;51.446;6.800;2023-12-28T13:18:53;12.30;99.90
14614;DHT22;7393;51.446;6.800;2023-12-28T13:21:20;12.20;99.90
14614;DHT22;7393;51.446;6.800;2023-12-28T13:23:47;12.20;99.90
14614;DHT22;7393;51.446;6.800;2023-12-28T13:26:14;12.30;99.90
14614;DHT22;7393;51.446;6.800;2023-12-28T13:28:42;12.30;91.00
14614;DHT22;7393;51.446;6.800;2023-12-28T13:31:09;12.30;99.90
14614;DHT22;7393;51.446;6.800;2023-12-28T13:33:36;12.30;99.90
14614;DHT22;7393;51.446;6.800;2023-12-28T13:36:03;12.30;99.90
14614;DHT22;7393;51.446;6.800;2023-12-28T13:38:30;12.30;55.20
14614;DHT22;7393;51.446;6.800;2023-12-28T13:40:56;12.30;46.00
14614;DHT22;7393;51.446;6.800;2023-12-28T13:43:23;12.30;44.60
14614;DHT22;7393;51.446;6.800;2023-12-28T13:45:51;12.30;49.80
14614;DHT22;7393;51.446;6.800;2023-12-28T13:48:18;12.20;69.50
14614;DHT22;7393;51.446;6.800;2023-12-28T13:50:45;12.30;68.70
14614;DHT22;7393;51.446;6.800;2023-12-28T13:53:11;12.20;77.80
14614;DHT22;7393;51.446;6.800;2023-12-28T13:55:38;12.20;87.00
14614;DHT22;7393;51.446;6.800;2023-12-28T13:58:05;12.40;99.90
14614;DHT22;7393;51.446;6.800;2023-12-28T14:00:31;12.30;99.90
14614;DHT22;7393;51.446;6.800;2023-12-28T14:03:00;12.20;78.30
14614;DHT22;7393;51.446;6.800;2023-12-28T14:05:26;12.20;99.90
14614;DHT22;7393;51.446;6.800;2023-12-28T14:07:53;12.20;83.70
14614;DHT22;7393;51.446;6.800;2023-12-28T14:10:20;12.20;92.50
14614;DHT22;7393;51.446;6.800;2023-12-28T14:12:46;12.30;62.10
14614;DHT22;7393;51.446;6.800;2023-12-28T14:15:13;12.20;80.20
14614;DHT22;7393;51.446;6.800;2023-12-28T14:17:41;12.10;96.60
14614;DHT22;7393;51.446;6.800;2023-12-28T14:20:10;12.10;99.90
14614;DHT22;7393;51.446;6.800;2023-12-28T14:22:38;12.10;96.70
14614;DHT22;7393;51.446;6.800;2023-12-28T14:25:06;12.10;55.50
14614;DHT22;7393;51.446;6.800;2023-12-28T14:27:32;12.10;43.50
14614;DHT22;7393;51.446;6.800;2023-12-28T14:29:59;12.10;27.50
14614;DHT22;7393;51.446;6.800;2023-12-28T14:32:29;12.10;43.10
14614;DHT22;7393;51.446;6.800;2023-12-28T14:34:56;12.10;32.50
14614;DHT22;7393;51.446;6.800;2023-12-28T14:37:24;12.00;74.90
14614;DHT22;7393;51.446;6.800;2023-12-28T14:39:51;12.10;49.50
14614;DHT22;7393;51.446;6.800;2023-12-28T14:42:18;12.00;46.20
14614;DHT22;7393;51.446;6.800;2023-12-28T14:44:45;12.00;76.00
14614;DHT22;7393;51.446;6.800;2023-12-28T14:47:13;11.90;70.90
14614;DHT22;7393;51.446;6.800;2023-12-28T14:49:39;11.90;95.60
14614;DHT22;7393;51.446;6.800;2023-12-28T14:52:06;11.90;99.90
14614;DHT22;7393;51.446;6.800;2023-12-28T14:54:34;11.90;99.90
14614;DHT22;7393;51.446;6.800;2023-12-28T14:57:01;11.90;99.90
14614;DHT22;7393;51.446;6.800;2023-12-28T14:59:28;11.90;99.90
14614;DHT22;7393;51.446;6.800;2023-12-28T15:01:54;12.00;99.90
14614;DHT22;7393;51.446;6.800;2023-12-28T15:04:22;11.90;99.90
14614;DHT22;7393;51.446;6.800;2023-12-28T15:06:48;11.90;99.90
14614;DHT22;7393;51.446;6.800;2023-12-28T15:09:15;12.00;99.90
14614;DHT22;7393;51.446;6.800;2023-12-28T15:11:44;11.90;99.90
14614;DHT22;7393;51.446;6.800;2023-12-28T15:14:11;11.80;99.90
14614;DHT22;7393;51.446;6.800;2023-12-28T15:16:38;11.70;99.90
14614;DHT22;7393;51.446;6.800;2023-12-28T15:19:05;11.70;99.90
14614;DHT22;7393;51.446;6.800;2023-12-28T15:21:33;11.80;99.90
14614;DHT22;7393;51.446;6.800;2023-12-28T15:24:01;11.70;99.90
14614;DHT22;7393;51.446;6.800;2023-12-28T15:26:28;11.70;99.90
14614;DHT22;7393;51.446;6.800;2023-12-28T15:28:56;11.60;99.90
14614;DHT22;7393;51.446;6.800;2023-12-28T15:31:23;11.60;99.90
14614;DHT22;7393;51.446;6.800;2023-12-28T15:33:50;11.70;99.90
14614;DHT22;7393;51.446;6.800;2023-12-28T15:36:16;11.60;99.90
14614;DHT22;7393;51.446;6.800;2023-12-28T15:38:43;11.70;99.90
14614;DHT22;7393;51.446;6.800;2023-12-28T15:41:10;11.60;99.90
14614;DHT22;7393;51.446;6.800;2023-12-28T15:43:37;11.60;99.90
14614;DHT22;7393;51.446;6.800;2023-12-28T15:46:05;11.60;99.90
14614;DHT22;7393;51.446;6.800;2023-12-28T15:48:32;11.60;99.90
14614;DHT22;7393;51.446;6.800;2023-12-28T15:50:59;11.60;99.90
14614;DHT22;7393;51.446;6.800;2023-12-28T15:53:26;11.70;99.90